Terminal Aerodrome Forecast
Issued by NWS

Home | Current Version | Previous Version | Text Only | Print | Product List | Glossary On
Versions: 1 2 3 4 5 6 7 8 9 10 11 12 13 14 15 16 17 18
292
FTUS41 KCLE 072331
TAFFDY
TAF
KFDY 072331Z 0800/0824 20012G18KT P6SM SCT035 OVC100
     FM080400 20010KT 6SM -RA BR OVC035
     FM081000 24005KT 5SM -SN OVC015
     FM081500 27008KT P6SM OVC020=

USA.gov is the U.S. government's official web portal to all federal, state and local government web resources and services.